Time;durP1;ratioP1;P1;durP2;ratioP2;P2;SDS_P1;SDS_P2;PMS_P1;PMS_P2;Temp;Humidity;BMP_temperature;BMP_pressure;BME280_temperature;BME280_humidity;BME280_pressure;Samples;Min_cycle;Max_cycle;Signal;HPM_P1;HPM_P2
2023/04/14 00:01:01;;;;;;;14.50;10.50;;;;;;;;;;5097156;28;20470;-70
2023/04/14 00:03:29;;;;;;;18.70;10.87;;;;;;;;;;5104548;28;20589;-69
2023/04/14 00:05:56;;;;;;;17.03;12.10;;;;;;;;;;5103373;28;20490;-69
2023/04/14 00:08:22;;;;;;;18.80;12.43;;;;;;;;;;5111356;28;20513;-70
2023/04/14 00:10:49;;;;;;;18.93;13.40;;;;;;;;;;5109176;27;20502;-70
2023/04/14 00:13:15;;;;;;;14.50;12.20;;;;;;;;;;5103445;28;20488;-70
2023/04/14 00:15:42;;;;;;;18.13;12.30;;;;;;;;;;5098477;28;20493;-70
2023/04/14 00:18:08;;;;;;;13.90;11.07;;;;;;;;;;5085013;28;20458;-70
2023/04/14 00:20:36;;;;;;;19.07;12.43;;;;;;;;;;5087568;28;20471;-70
2023/04/14 00:23:02;;;;;;;19.90;13.60;;;;;;;;;;5104511;28;20451;-70
2023/04/14 00:25:31;;;;;;;16.80;12.73;;;;;;;;;;5102004;28;20490;-70
2023/04/14 00:27:58;;;;;;;20.87;13.10;;;;;;;;;;5082784;28;20471;-69
2023/04/14 00:30:24;;;;;;;17.87;11.50;;;;;;;;;;5085941;28;20459;-71
2023/04/14 00:32:50;;;;;;;17.80;12.57;;;;;;;;;;5102444;28;20939;-69
2023/04/14 00:35:17;;;;;;;16.90;12.57;;;;;;;;;;5104085;28;20451;-70
2023/04/14 00:37:45;;;;;;;19.53;13.07;;;;;;;;;;5103235;28;20470;-70
2023/04/14 00:40:11;;;;;;;18.20;12.43;;;;;;;;;;5102187;28;20486;-70
2023/04/14 00:42:44;;;;;;;18.93;12.57;;;;;;;;;;5083842;28;20492;-69
2023/04/14 00:45:11;;;;;;;23.70;14.30;;;;;;;;;;5075915;28;20487;-70
2023/04/14 00:47:37;;;;;;;16.27;13.00;;;;;;;;;;5081205;28;20436;-69
2023/04/14 00:50:04;;;;;;;28.93;14.80;;;;;;;;;;5084806;28;20559;-68
2023/04/14 00:52:31;;;;;;;15.53;11.50;;;;;;;;;;5103285;28;20475;-69
2023/04/14 00:54:59;;;;;;;17.50;12.00;;;;;;;;;;5102284;28;20507;-69
2023/04/14 00:57:26;;;;;;;17.03;11.83;;;;;;;;;;5103326;28;20567;-68
2023/04/14 00:59:53;;;;;;;17.43;11.90;;;;;;;;;;5105624;28;20466;-69
2023/04/14 01:02:19;;;;;;;19.00;12.40;;;;;;;;;;5104168;27;20522;-68
2023/04/14 01:04:46;;;;;;;14.93;11.30;;;;;;;;;;5102692;28;20614;-68
2023/04/14 01:07:13;;;;;;;16.83;11.70;;;;;;;;;;5102393;28;20494;-69
2023/04/14 01:09:39;;;;;;;15.80;11.90;;;;;;;;;;5102655;28;20459;-68
2023/04/14 01:12:13;;;;;;;22.40;12.30;;;;;;;;;;5100472;27;20467;-68
2023/04/14 01:14:42;;;;;;;16.80;12.17;;;;;;;;;;5102729;28;20497;-68
2023/04/14 01:17:13;;;;;;;19.43;11.60;;;;;;;;;;5106809;28;20557;-68
2023/04/14 01:19:47;;;;;;;17.07;10.80;;;;;;;;;;5104299;28;20522;-68
2023/04/14 01:22:14;;;;;;;13.60;11.00;;;;;;;;;;5106724;27;20475;-67
2023/04/14 01:24:53;;;;;;;16.70;10.70;;;;;;;;;;5104630;28;20486;-67
2023/04/14 01:27:30;;;;;;;17.50;11.30;;;;;;;;;;5103176;28;21141;-66
2023/04/14 01:30:02;;;;;;;22.13;11.77;;;;;;;;;;5102383;28;20462;-67
2023/04/14 01:32:33;;;;;;;16.60;10.90;;;;;;;;;;5086220;27;20503;-67
2023/04/14 01:35:04;;;;;;;16.60;11.20;;;;;;;;;;5086822;28;20452;-67
2023/04/14 01:37:33;;;;;;;15.53;11.10;;;;;;;;;;5081810;28;20476;-67
2023/04/14 01:40:02;;;;;;;18.60;10.47;;;;;;;;;;5080292;28;20468;-67
2023/04/14 01:42:31;;;;;;;16.80;10.47;;;;;;;;;;5080380;28;20479;-67
2023/04/14 01:44:59;;;;;;;16.80;9.90;;;;;;;;;;5087846;28;20522;-67
2023/04/14 01:47:26;;;;;;;14.27;10.73;;;;;;;;;;5085284;28;20496;-67
2023/04/14 01:49:55;;;;;;;11.80;9.83;;;;;;;;;;5086215;28;20535;-67
2023/04/14 01:52:23;;;;;;;14.40;11.13;;;;;;;;;;5104746;28;20510;-67
2023/04/14 01:54:51;;;;;;;13.13;9.40;;;;;;;;;;5103340;28;20973;-67
2023/04/14 01:57:21;;;;;;;14.90;9.20;;;;;;;;;;5103041;28;20517;-67
2023/04/14 01:59:48;;;;;;;13.37;9.93;;;;;;;;;;5103721;28;20470;-67
2023/04/14 02:02:17;;;;;;;14.13;9.60;;;;;;;;;;5085268;28;20511;-67
2023/04/14 02:04:44;;;;;;;14.30;9.97;;;;;;;;;;5083079;28;20519;-68
2023/04/14 02:07:12;;;;;;;14.60;9.93;;;;;;;;;;5100696;28;20505;-67
2023/04/14 02:09:39;;;;;;;12.27;10.70;;;;;;;;;;5104514;28;20492;-64
2023/04/14 02:12:06;;;;;;;11.00;9.70;;;;;;;;;;5102327;28;20498;-65
2023/04/14 02:14:33;;;;;;;11.33;9.00;;;;;;;;;;5111788;28;21053;-65
2023/04/14 02:17:01;;;;;;;13.77;10.70;;;;;;;;;;5102257;28;20558;-65
2023/04/14 02:19:29;;;;;;;17.17;11.90;;;;;;;;;;5104457;28;20477;-66
2023/04/14 02:21:56;;;;;;;14.43;11.67;;;;;;;;;;5102511;28;20497;-66
2023/04/14 02:24:24;;;;;;;14.23;10.37;;;;;;;;;;5108515;28;20908;-66
2023/04/14 02:26:54;;;;;;;17.80;11.17;;;;;;;;;;5104283;28;20471;-66
2023/04/14 02:29:22;;;;;;;16.43;10.43;;;;;;;;;;5101434;28;20448;-66
2023/04/14 02:31:50;;;;;;;14.90;12.03;;;;;;;;;;5105173;28;20510;-66
2023/04/14 02:34:18;;;;;;;14.67;10.37;;;;;;;;;;5104816;28;20474;-66
2023/04/14 02:36:47;;;;;;;14.87;11.10;;;;;;;;;;5105923;28;20483;-66
2023/04/14 02:39:16;;;;;;;18.43;10.90;;;;;;;;;;5104359;28;20462;-66
2023/04/14 02:41:45;;;;;;;17.50;12.40;;;;;;;;;;5102476;28;20542;-66
2023/04/14 02:44:17;;;;;;;12.87;10.97;;;;;;;;;;5102118;28;20522;-66
2023/04/14 02:46:48;;;;;;;20.43;14.20;;;;;;;;;;5102792;28;20503;-66
2023/04/14 02:49:14;;;;;;;15.97;11.90;;;;;;;;;;5101491;28;20884;-66
2023/04/14 02:51:41;;;;;;;16.27;12.03;;;;;;;;;;5106448;28;20837;-66
2023/04/14 02:54:08;;;;;;;19.10;11.23;;;;;;;;;;5104627;28;20490;-66
2023/04/14 02:56:34;;;;;;;16.57;11.40;;;;;;;;;;5101646;27;20553;-66
2023/04/14 02:59:03;;;;;;;15.50;13.47;;;;;;;;;;5101630;28;20475;-66
2023/04/14 03:01:31;;;;;;;19.10;14.13;;;;;;;;;;5090057;27;20480;-66
2023/04/14 03:03:59;;;;;;;19.30;14.37;;;;;;;;;;5094570;28;20528;-66
2023/04/14 03:06:26;;;;;;;18.70;12.53;;;;;;;;;;5085952;28;20916;-65
2023/04/14 03:08:54;;;;;;;19.30;13.57;;;;;;;;;;5081791;28;20486;-66
2023/04/14 03:11:21;;;;;;;19.03;13.03;;;;;;;;;;5083613;28;20479;-67
2023/04/14 03:13:48;;;;;;;18.03;13.20;;;;;;;;;;5086784;28;20488;-66
2023/04/14 03:16:19;;;;;;;20.20;13.60;;;;;;;;;;5091010;28;20513;-66
2023/04/14 03:18:46;;;;;;;19.10;13.37;;;;;;;;;;5101700;28;20538;-65
2023/04/14 03:21:15;;;;;;;17.73;12.53;;;;;;;;;;5111889;27;20466;-66
2023/04/14 03:23:42;;;;;;;14.17;12.10;;;;;;;;;;5102780;28;20467;-66
2023/04/14 03:26:10;;;;;;;22.93;12.07;;;;;;;;;;5093634;28;20475;-65
2023/04/14 03:28:38;;;;;;;16.57;13.00;;;;;;;;;;5083481;28;20468;-66
2023/04/14 03:31:06;;;;;;;13.20;11.00;;;;;;;;;;5103259;27;20515;-66
2023/04/14 03:33:34;;;;;;;16.07;11.00;;;;;;;;;;5097773;28;20970;-65
2023/04/14 03:36:01;;;;;;;12.27;10.97;;;;;;;;;;5101484;28;20560;-65
2023/04/14 03:38:28;;;;;;;19.07;11.77;;;;;;;;;;5101975;28;20454;-65
2023/04/14 03:40:57;;;;;;;14.57;11.20;;;;;;;;;;5102897;28;20583;-65
2023/04/14 03:43:26;;;;;;;21.90;12.37;;;;;;;;;;5109932;28;20474;-65
2023/04/14 03:45:52;;;;;;;15.83;10.57;;;;;;;;;;5110733;27;20990;-65
2023/04/14 03:48:20;;;;;;;19.27;14.67;;;;;;;;;;5101207;28;20470;-65
2023/04/14 03:50:50;;;;;;;18.17;14.70;;;;;;;;;;5091519;27;20472;-65
2023/04/14 03:53:18;;;;;;;13.50;11.40;;;;;;;;;;5076066;28;20468;-65
2023/04/14 03:55:45;;;;;;;18.20;11.47;;;;;;;;;;5089648;28;20852;-64
2023/04/14 03:58:12;;;;;;;15.50;11.67;;;;;;;;;;5101488;28;20477;-65
2023/04/14 04:00:39;;;;;;;24.03;11.37;;;;;;;;;;5101153;28;20493;-65
2023/04/14 04:03:06;;;;;;;17.10;11.60;;;;;;;;;;5101561;28;20490;-65
2023/04/14 04:05:33;;;;;;;16.63;10.90;;;;;;;;;;5105018;27;20477;-65
2023/04/14 04:08:03;;;;;;;12.00;10.33;;;;;;;;;;5103293;28;20502;-65
2023/04/14 04:10:30;;;;;;;15.50;11.90;;;;;;;;;;5103136;28;20487;-66
2023/04/14 04:12:57;;;;;;;14.47;10.67;;;;;;;;;;5083375;28;20489;-65
2023/04/14 04:15:25;;;;;;;16.90;11.50;;;;;;;;;;5083353;28;20524;-65
2023/04/14 04:17:51;;;;;;;13.17;11.23;;;;;;;;;;5101715;28;20504;-65
2023/04/14 04:20:18;;;;;;;20.33;11.50;;;;;;;;;;5101286;28;20457;-65
2023/04/14 04:22:46;;;;;;;16.73;11.00;;;;;;;;;;5082607;28;20476;-65
2023/04/14 04:25:14;;;;;;;16.03;12.23;;;;;;;;;;5084588;28;20543;-65
2023/04/14 04:27:41;;;;;;;15.40;11.10;;;;;;;;;;5093763;28;20487;-65
2023/04/14 04:30:08;;;;;;;14.47;10.73;;;;;;;;;;5086455;28;20487;-66
2023/04/14 04:32:35;;;;;;;16.20;11.23;;;;;;;;;;5084969;28;20482;-65
2023/04/14 04:35:02;;;;;;;13.73;10.83;;;;;;;;;;5090548;28;20491;-65
2023/04/14 04:37:30;;;;;;;16.20;11.27;;;;;;;;;;5084617;28;20507;-65
2023/04/14 04:39:56;;;;;;;19.30;12.50;;;;;;;;;;5084724;28;20479;-65
2023/04/14 04:42:24;;;;;;;13.83;11.57;;;;;;;;;;5102718;28;20474;-65
2023/04/14 04:44:51;;;;;;;15.10;11.87;;;;;;;;;;5104832;28;20569;-65
2023/04/14 04:47:17;;;;;;;19.50;11.73;;;;;;;;;;5104400;28;20474;-65
2023/04/14 04:49:44;;;;;;;16.80;11.43;;;;;;;;;;5103752;28;20479;-65
2023/04/14 04:52:10;;;;;;;16.33;13.20;;;;;;;;;;5104029;28;20478;-65
2023/04/14 04:54:37;;;;;;;15.00;11.17;;;;;;;;;;5104922;28;20475;-65
2023/04/14 04:57:03;;;;;;;12.80;10.30;;;;;;;;;;5104112;28;20566;-65
2023/04/14 04:59:31;;;;;;;12.37;10.70;;;;;;;;;;5103901;28;20454;-65
2023/04/14 05:01:58;;;;;;;15.57;12.20;;;;;;;;;;5103637;28;20494;-65
2023/04/14 05:04:24;;;;;;;20.37;12.17;;;;;;;;;;5104955;28;20498;-65
2023/04/14 05:06:51;;;;;;;21.07;14.30;;;;;;;;;;5090715;28;20539;-65
2023/04/14 05:09:17;;;;;;;17.00;12.47;;;;;;;;;;5085843;28;20448;-64
2023/04/14 05:11:44;;;;;;;16.87;12.87;;;;;;;;;;5085124;28;20479;-65
2023/04/14 05:14:10;;;;;;;18.63;13.53;;;;;;;;;;5084765;28;20542;-65
2023/04/14 05:16:38;;;;;;;21.93;15.20;;;;;;;;;;5091226;28;20926;-65
2023/04/14 05:19:04;;;;;;;19.37;14.43;;;;;;;;;;5084070;28;20476;-65
2023/04/14 05:21:31;;;;;;;17.93;12.70;;;;;;;;;;5111629;28;20997;-65
2023/04/14 05:23:59;;;;;;;18.27;12.60;;;;;;;;;;5120066;28;20462;-65
2023/04/14 05:26:25;;;;;;;19.40;12.70;;;;;;;;;;5115172;27;20482;-66
2023/04/14 05:28:52;;;;;;;12.67;10.37;;;;;;;;;;5121930;28;20451;-66
2023/04/14 05:31:19;;;;;;;9.67;8.40;;;;;;;;;;5106175;27;20991;-66
2023/04/14 05:33:46;;;;;;;10.13;8.87;;;;;;;;;;5103959;28;20491;-66
2023/04/14 05:36:13;;;;;;;9.60;7.47;;;;;;;;;;5095860;28;20503;-67
2023/04/14 05:38:40;;;;;;;12.20;7.70;;;;;;;;;;5084223;28;20448;-67
2023/04/14 05:41:07;;;;;;;9.27;7.30;;;;;;;;;;5097103;27;20553;-67
2023/04/14 05:43:33;;;;;;;9.20;8.30;;;;;;;;;;5103714;28;20552;-67
2023/04/14 05:46:00;;;;;;;11.50;8.67;;;;;;;;;;5104699;28;20479;-67
2023/04/14 05:48:29;;;;;;;10.13;7.50;;;;;;;;;;5102605;28;20481;-67
2023/04/14 05:50:57;;;;;;;10.63;8.33;;;;;;;;;;5107423;27;20471;-67
2023/04/14 05:53:23;;;;;;;10.80;8.70;;;;;;;;;;5102984;28;20458;-67
2023/04/14 05:55:51;;;;;;;11.40;8.60;;;;;;;;;;5105554;28;20502;-67
2023/04/14 05:58:18;;;;;;;10.73;8.53;;;;;;;;;;5102123;28;20447;-67
2023/04/14 06:00:44;;;;;;;10.87;8.87;;;;;;;;;;5098889;28;20495;-68
2023/04/14 06:03:11;;;;;;;11.00;9.90;;;;;;;;;;5089626;28;20488;-68
2023/04/14 06:05:37;;;;;;;13.90;9.03;;;;;;;;;;5089514;28;20505;-69
2023/04/14 06:08:05;;;;;;;11.50;8.93;;;;;;;;;;5104103;28;20500;-69
2023/04/14 06:10:31;;;;;;;9.80;8.90;;;;;;;;;;5110782;28;20479;-69
2023/04/14 06:12:58;;;;;;;11.57;9.10;;;;;;;;;;5088342;28;20474;-69
2023/04/14 06:15:28;;;;;;;9.33;8.30;;;;;;;;;;5086208;28;20463;-70
2023/04/14 06:17:54;;;;;;;8.67;7.70;;;;;;;;;;5104871;28;20432;-69
2023/04/14 06:20:21;;;;;;;9.93;8.20;;;;;;;;;;5101529;28;20459;-69
2023/04/14 06:22:47;;;;;;;11.00;8.60;;;;;;;;;;5103612;28;20481;-70
2023/04/14 06:25:15;;;;;;;11.93;8.57;;;;;;;;;;5102268;28;20554;-71
2023/04/14 06:27:42;;;;;;;10.93;8.00;;;;;;;;;;5103225;28;20455;-70
2023/04/14 06:30:08;;;;;;;9.40;7.30;;;;;;;;;;5103632;27;20776;-71
2023/04/14 06:32:35;;;;;;;8.63;7.77;;;;;;;;;;5104445;28;20455;-72
2023/04/14 06:35:03;;;;;;;10.60;6.80;;;;;;;;;;5102062;28;20468;-75
2023/04/14 06:37:30;;;;;;;8.87;7.30;;;;;;;;;;5083955;28;20505;-71
2023/04/14 06:39:56;;;;;;;9.60;6.23;;;;;;;;;;5084296;28;20439;-71
2023/04/14 06:42:25;;;;;;;10.33;6.60;;;;;;;;;;5107458;28;20478;-71
2023/04/14 06:44:51;;;;;;;13.03;6.70;;;;;;;;;;5101635;28;20456;-72
2023/04/14 06:47:18;;;;;;;8.83;6.20;;;;;;;;;;5101529;28;20499;-70
2023/04/14 06:49:44;;;;;;;8.40;6.20;;;;;;;;;;5101011;28;20503;-71
2023/04/14 06:52:10;;;;;;;9.50;6.93;;;;;;;;;;5101650;28;20483;-71
2023/04/14 06:54:37;;;;;;;8.00;6.27;;;;;;;;;;5101513;28;20486;-71
2023/04/14 06:57:03;;;;;;;9.27;5.37;;;;;;;;;;5101846;27;20598;-72
2023/04/14 06:59:31;;;;;;;9.17;6.10;;;;;;;;;;5101750;28;21170;-72
2023/04/14 07:01:57;;;;;;;13.67;6.90;;;;;;;;;;5101221;28;20570;-72
2023/04/14 07:04:25;;;;;;;9.27;6.57;;;;;;;;;;5105351;28;20477;-72
2023/04/14 07:06:52;;;;;;;11.97;6.83;;;;;;;;;;5088552;28;20490;-67
2023/04/14 07:09:19;;;;;;;9.27;6.90;;;;;;;;;;5080617;28;20462;-67
2023/04/14 07:11:46;;;;;;;14.80;7.57;;;;;;;;;;5097184;27;20225;-67
2023/04/14 07:14:12;;;;;;;11.60;7.30;;;;;;;;;;5103740;28;20457;-70
2023/04/14 07:16:40;;;;;;;8.00;6.83;;;;;;;;;;5101825;28;20512;-67
2023/04/14 07:19:07;;;;;;;12.57;7.10;;;;;;;;;;5101692;28;20479;-70
2023/04/14 07:21:33;;;;;;;11.20;7.53;;;;;;;;;;5107570;28;20541;-69
2023/04/14 07:24:00;;;;;;;9.23;6.57;;;;;;;;;;5102011;28;20466;-69
2023/04/14 07:26:26;;;;;;;9.07;6.80;;;;;;;;;;5101656;28;20513;-69
2023/04/14 07:28:53;;;;;;;8.97;7.10;;;;;;;;;;5101631;28;20454;-69
2023/04/14 07:31:19;;;;;;;14.30;7.07;;;;;;;;;;5090415;28;20529;-68
2023/04/14 07:33:47;;;;;;;9.57;6.80;;;;;;;;;;5081893;28;20455;-68
2023/04/14 07:36:14;;;;;;;10.40;7.00;;;;;;;;;;5094387;27;20479;-68
2023/04/14 07:38:41;;;;;;;8.77;7.33;;;;;;;;;;5100063;28;20442;-68
2023/04/14 07:41:07;;;;;;;11.90;6.93;;;;;;;;;;5102804;28;20471;-69
2023/04/14 07:43:34;;;;;;;8.77;6.70;;;;;;;;;;5103199;28;20484;-68
2023/04/14 07:46:03;;;;;;;7.93;6.17;;;;;;;;;;5093304;28;20471;-69
2023/04/14 07:48:29;;;;;;;11.40;7.07;;;;;;;;;;5082651;28;20447;-69
2023/04/14 07:50:57;;;;;;;16.10;6.40;;;;;;;;;;5088544;28;21005;-69
2023/04/14 07:53:24;;;;;;;10.07;6.07;;;;;;;;;;5101036;28;20454;-69
2023/04/14 07:55:50;;;;;;;11.87;6.70;;;;;;;;;;5100501;28;20481;-71
2023/04/14 07:58:16;;;;;;;11.47;7.07;;;;;;;;;;5104884;28;20926;-72
2023/04/14 08:00:43;;;;;;;10.13;6.43;;;;;;;;;;5107402;28;20487;-72
2023/04/14 08:03:10;;;;;;;10.97;6.40;;;;;;;;;;5108903;28;20500;-72
2023/04/14 08:05:36;;;;;;;8.60;6.03;;;;;;;;;;5109933;28;20475;-69
2023/04/14 08:08:04;;;;;;;9.23;6.60;;;;;;;;;;5105635;28;20855;-66
2023/04/14 08:10:30;;;;;;;10.33;5.50;;;;;;;;;;5105336;28;20478;-66
2023/04/14 08:12:57;;;;;;;9.83;5.83;;;;;;;;;;5108399;28;20463;-66
2023/04/14 08:15:23;;;;;;;10.13;5.10;;;;;;;;;;5103626;28;20712;-66
2023/04/14 08:17:49;;;;;;;10.60;5.63;;;;;;;;;;5106957;28;20458;-65
2023/04/14 08:20:16;;;;;;;8.20;5.40;;;;;;;;;;5104331;28;20472;-67
2023/04/14 08:22:42;;;;;;;8.87;4.93;;;;;;;;;;5108156;28;20493;-67
2023/04/14 08:25:11;;;;;;;11.07;5.43;;;;;;;;;;5105309;28;20451;-68
2023/04/14 08:27:37;;;;;;;8.77;4.90;;;;;;;;;;5111355;28;20450;-67
2023/04/14 08:30:04;;;;;;;12.47;6.30;;;;;;;;;;5112589;28;20541;-67
2023/04/14 08:32:31;;;;;;;13.63;5.17;;;;;;;;;;5104034;27;20506;-67
2023/04/14 08:34:58;;;;;;;11.43;5.63;;;;;;;;;;5104616;28;20447;-67
2023/04/14 08:37:24;;;;;;;9.33;5.33;;;;;;;;;;5105381;28;20545;-66
2023/04/14 08:39:51;;;;;;;15.90;5.77;;;;;;;;;;5104784;28;20480;-66
2023/04/14 08:42:19;;;;;;;12.40;5.40;;;;;;;;;;5103696;27;21054;-66
2023/04/14 08:44:46;;;;;;;9.40;5.07;;;;;;;;;;5110321;28;20455;-66
2023/04/14 08:47:13;;;;;;;8.70;5.53;;;;;;;;;;5105693;28;20576;-66
2023/04/14 08:49:41;;;;;;;7.40;4.50;;;;;;;;;;5103283;28;20467;-67
2023/04/14 08:52:09;;;;;;;7.17;5.43;;;;;;;;;;5087205;27;20515;-68
2023/04/14 08:54:36;;;;;;;9.33;5.80;;;;;;;;;;5084475;28;20448;-67
2023/04/14 08:57:03;;;;;;;8.03;5.23;;;;;;;;;;5096834;28;20522;-67
2023/04/14 08:59:31;;;;;;;8.63;5.60;;;;;;;;;;5103370;28;20482;-67
2023/04/14 09:01:58;;;;;;;10.77;6.30;;;;;;;;;;5102394;28;20521;-66
2023/04/14 09:04:26;;;;;;;13.23;6.13;;;;;;;;;;5104380;28;20454;-66
2023/04/14 09:06:52;;;;;;;10.83;5.40;;;;;;;;;;5102401;28;20479;-66
2023/04/14 09:09:19;;;;;;;9.50;5.30;;;;;;;;;;5104455;28;20534;-66
2023/04/14 09:11:45;;;;;;;10.50;5.20;;;;;;;;;;5089491;28;20582;-66
2023/04/14 09:14:12;;;;;;;7.43;5.13;;;;;;;;;;5084374;28;20984;-67
2023/04/14 09:16:40;;;;;;;8.20;5.60;;;;;;;;;;5096793;28;20934;-66
2023/04/14 09:19:07;;;;;;;10.27;4.63;;;;;;;;;;5103287;28;20610;-67
2023/04/14 09:21:35;;;;;;;9.30;4.80;;;;;;;;;;5101505;27;20994;-66
2023/04/14 09:24:01;;;;;;;12.10;5.07;;;;;;;;;;5103670;28;20455;-67
2023/04/14 09:26:28;;;;;;;9.67;5.10;;;;;;;;;;5104218;27;20509;-67
2023/04/14 09:28:55;;;;;;;11.47;5.40;;;;;;;;;;5102905;28;20479;-67
2023/04/14 09:31:22;;;;;;;8.00;5.23;;;;;;;;;;5108460;28;20521;-67
2023/04/14 09:33:50;;;;;;;8.63;5.33;;;;;;;;;;5110757;28;20486;-66
2023/04/14 09:36:18;;;;;;;12.03;5.40;;;;;;;;;;5094985;28;20495;-67
2023/04/14 09:38:44;;;;;;;12.13;5.33;;;;;;;;;;5078178;28;20451;-67
2023/04/14 09:41:15;;;;;;;7.23;4.47;;;;;;;;;;5090323;28;20491;-67
2023/04/14 09:43:42;;;;;;;8.90;4.90;;;;;;;;;;5084306;28;20482;-67
2023/04/14 09:46:09;;;;;;;8.63;4.90;;;;;;;;;;5090797;28;20529;-67
2023/04/14 09:48:36;;;;;;;7.70;4.50;;;;;;;;;;5102326;28;20457;-67
2023/04/14 09:51:05;;;;;;;10.40;4.70;;;;;;;;;;5102481;28;20562;-67
2023/04/14 09:53:33;;;;;;;9.87;5.53;;;;;;;;;;5102308;28;20518;-67
2023/04/14 09:56:01;;;;;;;10.13;4.80;;;;;;;;;;5113307;27;20567;-67
2023/04/14 09:58:28;;;;;;;8.53;5.10;;;;;;;;;;5103910;28;20455;-66
2023/04/14 10:00:56;;;;;;;6.73;4.03;;;;;;;;;;5095336;28;20911;-67
2023/04/14 10:03:32;;;;;;;4.67;3.20;;;;;;;;;;5075733;28;20488;-67
2023/04/14 10:05:59;;;;;;;7.33;2.63;;;;;;;;;;5102335;28;20481;-67
2023/04/14 10:08:34;;;;;;;7.90;3.27;;;;;;;;;;5106420;28;20440;-70
2023/04/14 10:11:13;;;;;;;12.67;4.53;;;;;;;;;;5109975;27;20505;-67
2023/04/14 10:13:39;;;;;;;6.77;3.30;;;;;;;;;;5115418;28;20508;-67
2023/04/14 10:16:06;;;;;;;8.87;3.97;;;;;;;;;;5110395;27;20940;-67
2023/04/14 10:18:32;;;;;;;10.43;5.27;;;;;;;;;;5105800;28;20513;-67
2023/04/14 10:21:00;;;;;;;10.33;5.47;;;;;;;;;;5095458;28;21029;-68
2023/04/14 10:23:26;;;;;;;12.27;6.07;;;;;;;;;;5102181;28;20475;-67
2023/04/14 10:25:54;;;;;;;10.67;5.50;;;;;;;;;;5098247;28;20482;-68
2023/04/14 10:28:21;;;;;;;10.90;6.00;;;;;;;;;;5104001;28;20558;-68
2023/04/14 10:30:49;;;;;;;6.70;5.60;;;;;;;;;;5101546;28;20482;-68
2023/04/14 10:33:15;;;;;;;6.63;4.73;;;;;;;;;;5109770;28;20490;-69
2023/04/14 10:35:42;;;;;;;9.63;5.00;;;;;;;;;;5103460;27;20481;-68
2023/04/14 10:38:09;;;;;;;8.87;5.07;;;;;;;;;;5100758;28;20451;-67
2023/04/14 10:40:45;;;;;;;8.70;5.00;;;;;;;;;;5103865;28;20487;-68
2023/04/14 10:43:13;;;;;;;8.77;5.53;;;;;;;;;;5085051;28;20454;-67
2023/04/14 10:45:53;;;;;;;6.80;4.90;;;;;;;;;;5085328;28;20471;-68
2023/04/14 10:48:19;;;;;;;10.93;5.33;;;;;;;;;;5103038;28;20469;-68
2023/04/14 10:50:46;;;;;;;7.67;4.80;;;;;;;;;;5101094;28;20471;-68
2023/04/14 10:53:13;;;;;;;10.27;5.10;;;;;;;;;;5102262;28;20486;-67
2023/04/14 10:55:45;;;;;;;9.80;5.53;;;;;;;;;;5100257;28;20474;-67
2023/04/14 10:58:18;;;;;;;11.40;5.20;;;;;;;;;;5103321;28;20474;-67
2023/04/14 11:00:45;;;;;;;7.10;5.40;;;;;;;;;;5095029;28;20896;-68
2023/04/14 11:03:12;;;;;;;14.23;5.67;;;;;;;;;;5080952;28;20487;-67
2023/04/14 11:05:42;;;;;;;7.53;5.40;;;;;;;;;;5091157;28;20470;-68
2023/04/14 11:08:12;;;;;;;11.27;5.07;;;;;;;;;;5117821;28;20590;-65
2023/04/14 11:10:38;;;;;;;8.87;4.73;;;;;;;;;;5111959;27;20512;-66
2023/04/14 11:13:06;;;;;;;8.80;4.63;;;;;;;;;;5107638;28;20515;-67
2023/04/14 11:15:47;;;;;;;6.03;4.50;;;;;;;;;;5096355;28;20468;-66
2023/04/14 11:18:14;;;;;;;7.90;4.67;;;;;;;;;;5098301;28;20446;-66
2023/04/14 11:20:41;;;;;;;6.70;4.57;;;;;;;;;;5098323;28;20547;-67
2023/04/14 11:23:08;;;;;;;7.40;4.70;;;;;;;;;;5096944;28;20459;-68
2023/04/14 11:25:34;;;;;;;5.30;3.63;;;;;;;;;;5095659;28;20474;-68
2023/04/14 11:28:02;;;;;;;8.73;4.43;;;;;;;;;;5094660;28;20524;-68
2023/04/14 11:30:28;;;;;;;6.97;4.33;;;;;;;;;;5102747;28;20501;-67
2023/04/14 11:32:57;;;;;;;8.43;4.10;;;;;;;;;;5104341;28;20505;-67
2023/04/14 11:35:25;;;;;;;7.60;4.77;;;;;;;;;;5102881;27;20443;-67
2023/04/14 11:37:52;;;;;;;12.27;5.50;;;;;;;;;;5115109;28;20442;-69
2023/04/14 11:40:19;;;;;;;8.47;5.07;;;;;;;;;;5114567;27;20492;-67
2023/04/14 11:42:46;;;;;;;8.83;5.70;;;;;;;;;;5109079;28;20840;-68
2023/04/14 11:45:14;;;;;;;8.80;5.30;;;;;;;;;;5111694;27;20458;-67
2023/04/14 11:47:40;;;;;;;8.43;5.30;;;;;;;;;;5116890;28;20531;-67
2023/04/14 11:50:09;;;;;;;9.47;6.27;;;;;;;;;;5110755;27;20482;-67
2023/04/14 11:52:35;;;;;;;8.73;5.73;;;;;;;;;;5087623;28;20800;-67
2023/04/14 11:55:01;;;;;;;8.20;5.30;;;;;;;;;;5089168;28;20487;-69
2023/04/14 11:57:28;;;;;;;8.70;5.20;;;;;;;;;;5104160;28;20475;-67
2023/04/14 11:59:56;;;;;;;10.10;4.90;;;;;;;;;;5110156;28;20462;-67
2023/04/14 12:02:22;;;;;;;6.73;5.40;;;;;;;;;;5108537;28;20518;-66
2023/04/14 12:04:50;;;;;;;10.93;5.30;;;;;;;;;;5106638;28;20519;-67
2023/04/14 12:07:19;;;;;;;8.10;5.20;;;;;;;;;;5088730;28;20963;-67
2023/04/14 12:09:46;;;;;;;5.93;4.40;;;;;;;;;;5086642;28;20444;-69
2023/04/14 12:12:13;;;;;;;11.13;4.77;;;;;;;;;;5106401;27;20482;-66
2023/04/14 12:14:40;;;;;;;6.37;4.80;;;;;;;;;;5123605;28;21054;-72
2023/04/14 12:17:07;;;;;;;4.80;4.10;;;;;;;;;;5113058;28;20474;-73
2023/04/14 12:19:34;;;;;;;9.40;4.90;;;;;;;;;;5108528;28;20494;-75
2023/04/14 12:22:01;;;;;;;5.27;3.93;;;;;;;;;;5108132;28;20524;-72
2023/04/14 12:24:34;;;;;;;4.87;4.30;;;;;;;;;;5117457;28;20489;-73
2023/04/14 12:27:03;;;;;;;7.50;3.93;;;;;;;;;;5107249;28;20505;-73
2023/04/14 12:29:30;;;;;;;6.53;4.00;;;;;;;;;;5106904;28;20473;-74
2023/04/14 12:31:56;;;;;;;5.73;3.53;;;;;;;;;;5104524;28;20779;-73
2023/04/14 12:34:24;;;;;;;6.67;3.90;;;;;;;;;;5106645;28;20514;-73
2023/04/14 12:36:51;;;;;;;6.57;4.83;;;;;;;;;;5090068;28;20504;-72
2023/04/14 12:39:18;;;;;;;6.50;4.00;;;;;;;;;;5085812;28;20448;-72
2023/04/14 12:41:46;;;;;;;5.77;4.10;;;;;;;;;;5096912;28;20517;-72
2023/04/14 12:44:14;;;;;;;6.47;3.87;;;;;;;;;;5112182;28;20458;-73
2023/04/14 12:46:45;;;;;;;5.03;3.20;;;;;;;;;;5110563;27;20502;-72
2023/04/14 12:49:27;;;;;;;6.63;3.57;;;;;;;;;;5110368;28;20506;-73
2023/04/14 12:51:55;;;;;;;5.87;3.20;;;;;;;;;;5096112;27;20749;-71
2023/04/14 12:54:22;;;;;;;5.97;3.80;;;;;;;;;;5084273;28;20515;-72
2023/04/14 12:56:50;;;;;;;9.03;3.60;;;;;;;;;;5097335;28;20495;-74
2023/04/14 12:59:18;;;;;;;7.40;3.40;;;;;;;;;;5103056;28;20487;-73
2023/04/14 13:01:45;;;;;;;6.57;3.90;;;;;;;;;;5105782;28;20503;-73
2023/04/14 13:04:11;;;;;;;8.93;3.73;;;;;;;;;;5105844;28;20561;-73
2023/04/14 13:06:37;;;;;;;6.30;3.40;;;;;;;;;;5105451;28;20543;-73
2023/04/14 13:09:04;;;;;;;8.40;3.37;;;;;;;;;;5108189;28;20886;-73
2023/04/14 13:11:31;;;;;;;5.90;3.60;;;;;;;;;;5095100;28;20578;-73
2023/04/14 13:13:59;;;;;;;8.83;3.53;;;;;;;;;;5085514;28;20468;-72
2023/04/14 13:16:26;;;;;;;7.13;4.47;;;;;;;;;;5076098;28;20507;-73
2023/04/14 13:18:52;;;;;;;10.80;3.70;;;;;;;;;;5094478;28;20451;-73
2023/04/14 13:21:18;;;;;;;11.90;3.73;;;;;;;;;;5098137;28;20478;-73
2023/04/14 13:23:45;;;;;;;5.10;3.20;;;;;;;;;;5107311;28;20455;-73
2023/04/14 13:26:12;;;;;;;5.47;3.23;;;;;;;;;;5100832;28;20479;-73
2023/04/14 13:28:38;;;;;;;7.20;3.37;;;;;;;;;;5090547;28;20475;-74
2023/04/14 13:31:06;;;;;;;6.40;2.53;;;;;;;;;;5095044;28;21096;-74
2023/04/14 13:33:32;;;;;;;7.70;2.93;;;;;;;;;;5107752;28;20478;-74
2023/04/14 13:35:59;;;;;;;7.47;3.00;;;;;;;;;;5099102;28;20491;-74
2023/04/14 13:38:26;;;;;;;4.93;2.67;;;;;;;;;;5082296;28;20483;-74
2023/04/14 13:40:52;;;;;;;5.37;3.53;;;;;;;;;;5095764;28;20482;-73
2023/04/14 13:43:18;;;;;;;3.67;2.60;;;;;;;;;;5105400;28;20954;-72
2023/04/14 13:45:45;;;;;;;4.27;2.43;;;;;;;;;;5094903;27;21178;-73
2023/04/14 13:48:13;;;;;;;3.60;2.50;;;;;;;;;;5079822;28;20502;-75
2023/04/14 13:50:39;;;;;;;6.80;2.43;;;;;;;;;;5076715;28;20926;-73
2023/04/14 13:53:06;;;;;;;4.20;2.53;;;;;;;;;;5080936;28;20452;-73
2023/04/14 13:55:33;;;;;;;3.70;2.80;;;;;;;;;;5085972;28;20498;-72
2023/04/14 13:57:59;;;;;;;3.97;3.20;;;;;;;;;;5075937;28;20455;-73
2023/04/14 14:00:26;;;;;;;7.57;3.07;;;;;;;;;;5079869;28;20468;-74
2023/04/14 14:02:52;;;;;;;6.17;2.90;;;;;;;;;;5081904;28;20539;-73
2023/04/14 14:05:20;;;;;;;5.20;3.00;;;;;;;;;;5075482;28;20447;-74
2023/04/14 14:07:47;;;;;;;5.57;3.60;;;;;;;;;;5079253;28;20543;-76
2023/04/14 14:10:13;;;;;;;5.20;3.17;;;;;;;;;;5082526;28;20535;-75
2023/04/14 14:12:39;;;;;;;8.50;2.87;;;;;;;;;;5101062;28;20447;-74
2023/04/14 14:15:06;;;;;;;3.33;2.40;;;;;;;;;;5101264;28;20455;-73
2023/04/14 14:17:33;;;;;;;5.43;3.03;;;;;;;;;;5101848;28;20451;-75
2023/04/14 14:19:59;;;;;;;4.60;3.10;;;;;;;;;;5101226;28;20491;-75
2023/04/14 14:22:27;;;;;;;7.90;3.00;;;;;;;;;;5104057;27;20485;-75
2023/04/14 14:24:54;;;;;;;6.00;3.47;;;;;;;;;;5102472;28;20466;-73
2023/04/14 14:27:20;;;;;;;6.63;3.40;;;;;;;;;;5102010;28;20503;-74
2023/04/14 14:29:47;;;;;;;4.50;2.67;;;;;;;;;;5100919;28;20486;-73
2023/04/14 14:32:14;;;;;;;4.83;3.10;;;;;;;;;;5109524;28;20517;-73